Time;durP1;ratioP1;P1;durP2;ratioP2;P2;SDS_P1;SDS_P2;PMS_P1;PMS_P2;Temp;Humidity;BMP_temperature;BMP_pressure;BME280_temperature;BME280_humidity;BME280_pressure;Samples;Min_cycle;Max_cycle;Signal;HPM_P1;HPM_P2
2021/05/24 00:04:10;;;;;;;5.80;2.40;;;;;;;8.42;84.21;100848.20;3536747;81;25960;-88
2021/05/24 00:09:11;;;;;;;5.77;2.80;;;;;;;8.37;83.89;100849.83;3531837;81;98643;-88
2021/05/24 00:14:13;;;;;;;6.73;2.87;;;;;;;8.31;84.00;100845.75;3539305;81;32777;-88
2021/05/24 00:19:13;;;;;;;5.43;2.43;;;;;;;8.25;84.03;100852.64;3530631;81;98572;-88
2021/05/24 00:24:14;;;;;;;5.27;2.57;;;;;;;8.18;84.22;100857.87;3539315;81;32589;-88
2021/05/24 00:29:19;;;;;;;5.53;2.50;;;;;;;8.12;84.10;100859.88;3527427;81;98492;-88
2021/05/24 00:34:18;;;;;;;6.20;2.33;;;;;;;8.04;84.47;100855.33;3538557;81;32412;-88
2021/05/24 00:39:18;;;;;;;6.70;3.10;;;;;;;7.97;84.16;100853.17;3523581;81;99005;-88
2021/05/24 00:44:19;;;;;;;5.93;2.57;;;;;;;7.92;84.12;100854.02;3543912;81;33073;-87
2021/05/24 00:49:26;;;;;;;5.48;2.50;;;;;;;7.85;84.19;100851.86;3531461;81;98193;-87
2021/05/24 00:54:28;;;;;;;5.03;2.75;;;;;;;7.81;84.19;100850.95;3545508;81;98391;-87
2021/05/24 00:59:29;;;;;;;8.13;3.08;;;;;;;7.77;84.33;100846.53;3496553;83;30912;-87
2021/05/24 01:04:30;;;;;;;7.30;3.40;;;;;;;7.71;84.02;100844.63;3479400;80;98850;-88
2021/05/24 01:09:31;;;;;;;6.10;3.03;;;;;;;7.70;84.83;100853.95;3527817;81;26427;-88
2021/05/24 01:14:32;;;;;;;6.63;2.50;;;;;;;7.64;84.69;100858.67;3506268;81;100715;-88
2021/05/24 01:19:32;;;;;;;4.73;2.30;;;;;;;7.60;84.85;100856.40;3533625;81;26137;-87
2021/05/24 01:24:33;;;;;;;6.23;3.10;;;;;;;7.54;85.62;100842.16;3525374;81;98847;-87
2021/05/24 01:29:35;;;;;;;8.37;3.93;;;;;;;7.55;85.49;100851.97;3529895;81;26123;-88
2021/05/24 01:34:35;;;;;;;7.80;3.80;;;;;;;7.61;85.57;100857.42;3535411;81;98784;-88
2021/05/24 01:39:36;;;;;;;7.53;3.93;;;;;;;7.67;86.73;100849.75;3536298;81;25812;-89
2021/05/24 01:44:40;;;;;;;8.58;4.40;;;;;;;7.71;87.06;100850.09;3526682;81;98679;-88
2021/05/24 01:49:47;;;;;;;7.30;3.55;;;;;;;7.81;87.92;100848.21;3537675;81;25959;-88
2021/05/24 01:54:46;;;;;;;6.17;3.17;;;;;;;7.90;87.29;100852.98;3527747;80;98886;-87
2021/05/24 01:59:48;;;;;;;6.53;3.30;;;;;;;7.97;87.43;100858.66;3533485;81;26471;-88
2021/05/24 02:04:48;;;;;;;8.50;4.12;;;;;;;8.03;87.06;100846.33;3536425;81;98758;-88
2021/05/24 02:09:49;;;;;;;7.63;3.57;;;;;;;8.08;87.14;100841.93;3537253;81;33239;-88
2021/05/24 02:14:53;;;;;;;7.78;3.47;;;;;;;8.11;86.51;100850.03;3533713;81;98867;-87
2021/05/24 02:19:54;;;;;;;9.23;4.60;;;;;;;8.11;86.26;100846.73;3541531;81;26411;-88
2021/05/24 02:24:55;;;;;;;9.50;5.27;;;;;;;8.11;86.01;100843.98;3523448;81;98683;-88
2021/05/24 02:29:56;;;;;;;8.73;4.87;;;;;;;8.11;86.26;100853.58;3538310;81;33300;-88
2021/05/24 02:34:57;;;;;;;8.27;4.00;;;;;;;8.08;86.69;100839.78;3534553;81;98781;-88
2021/05/24 02:39:57;;;;;;;9.43;4.47;;;;;;;8.03;85.97;100849.63;3538574;81;33148;-88
2021/05/24 02:44:58;;;;;;;8.63;4.53;;;;;;;7.99;86.36;100856.38;3531542;81;98882;-88
2021/05/24 02:49:59;;;;;;;7.23;3.77;;;;;;;7.89;86.19;100846.47;3535398;81;33268;-88
2021/05/24 02:55:00;;;;;;;8.30;4.35;;;;;;;7.84;85.71;100849.46;3523328;81;98967;-87
2021/05/24 03:00:00;;;;;;;7.63;3.40;;;;;;;7.79;85.61;100847.77;3534525;81;31682;-88
2021/05/24 03:05:01;;;;;;;7.67;3.70;;;;;;;7.75;85.28;100852.34;3527651;81;98806;-88
2021/05/24 03:10:03;;;;;;;8.13;4.33;;;;;;;7.70;85.25;100847.70;3525750;81;31655;-87
2021/05/24 03:15:05;;;;;;;8.17;3.77;;;;;;;7.64;85.44;100843.61;3530395;81;98750;-87
2021/05/24 03:20:09;;;;;;;7.33;3.70;;;;;;;7.60;85.52;100847.63;3544361;81;31652;-88
2021/05/24 03:25:12;;;;;;;8.38;4.20;;;;;;;7.56;85.71;100865.89;3525157;81;98677;-87
2021/05/24 03:30:15;;;;;;;6.37;3.47;;;;;;;7.53;85.52;100868.52;3529879;81;28549;-88
2021/05/24 03:35:15;;;;;;;8.30;4.12;;;;;;;7.48;85.54;100871.50;3532428;81;98581;-87
2021/05/24 03:40:17;;;;;;;9.65;4.80;;;;;;;7.43;85.99;100858.04;3532811;81;31600;-88
2021/05/24 03:45:26;;;;;;;8.03;4.20;;;;;;;7.43;86.87;100846.53;3533491;81;99141;-87
2021/05/24 03:50:26;;;;;;;10.13;5.10;;;;;;;7.44;86.66;100844.02;3544691;81;33660;-84
2021/05/24 03:55:28;;;;;;;10.47;4.93;;;;;;;7.46;86.94;100847.19;3522033;81;99021;-86
2021/05/24 04:00:30;;;;;;;10.50;5.42;;;;;;;7.49;86.80;100843.77;3467810;83;33317;-87
2021/05/24 04:05:33;;;;;;;11.70;6.22;;;;;;;7.56;87.45;100845.34;3413756;84;98542;-86
2021/05/24 04:10:37;;;;;;;11.78;6.20;;;;;;;7.61;87.65;100848.41;3436405;84;34553;-87
2021/05/24 04:15:36;;;;;;;10.80;6.22;;;;;;;7.75;88.99;100859.20;3426777;84;98925;-87
2021/05/24 04:20:37;;;;;;;11.13;5.50;;;;;;;7.90;89.53;100861.80;3428290;84;31935;-87
2021/05/24 04:25:38;;;;;;;16.48;5.87;;;;;;;8.04;90.49;100867.66;3420140;84;99302;-87
2021/05/24 04:30:39;;;;;;;12.37;6.73;;;;;;;8.20;89.82;100868.53;3426834;84;31679;-87
2021/05/24 04:35:39;;;;;;;12.23;6.17;;;;;;;8.39;90.06;100869.45;3431146;84;98943;-87
2021/05/24 04:40:40;;;;;;;13.07;6.80;;;;;;;8.51;89.86;100878.20;3427238;84;31622;-88
2021/05/24 04:45:41;;;;;;;14.00;5.30;;;;;;;8.64;89.95;100883.27;3419237;84;99001;-87
2021/05/24 04:50:42;;;;;;;9.40;5.12;;;;;;;8.83;90.14;100872.36;3464586;83;31665;-87
2021/05/24 04:55:44;;;;;;;12.37;5.97;;;;;;;9.03;89.86;100883.66;3454303;83;98596;-88
2021/05/24 05:00:45;;;;;;;13.55;6.25;;;;;;;9.25;89.63;100879.45;3452097;83;30317;-89
2021/05/24 05:05:46;;;;;;;13.88;6.10;;;;;;;9.52;90.02;100877.14;3453616;83;99145;-89
2021/05/24 05:10:48;;;;;;;10.50;5.23;;;;;;;9.79;89.86;100883.84;3450939;83;26320;-89
2021/05/24 05:15:49;;;;;;;9.67;5.63;;;;;;;10.18;90.03;100874.47;3451464;83;99098;-88
2021/05/24 05:20:50;;;;;;;9.73;5.40;;;;;;;10.71;89.47;100874.07;3455188;83;34838;-88
2021/05/24 05:25:50;;;;;;;13.57;5.30;;;;;;;11.34;89.23;100880.03;3447134;83;99415;-90
2021/05/24 05:30:52;;;;;;;9.27;4.20;;;;;;;12.08;87.00;100881.07;3444139;83;34838;-90
2021/05/24 05:35:56;;;;;;;10.37;4.33;;;;;;;12.93;86.64;100889.86;3449878;83;99031;-90
2021/05/24 05:40:55;;;;;;;8.13;3.90;;;;;;;13.85;82.80;100892.73;3451134;83;25865;-89
2021/05/24 05:45:56;;;;;;;9.20;4.50;;;;;;;14.68;81.97;100883.95;3452312;83;99220;-89
2021/05/24 05:50:57;;;;;;;10.30;4.03;;;;;;;15.53;80.54;100889.71;3448608;83;26432;-89
2021/05/24 05:55:58;;;;;;;12.23;4.27;;;;;;;16.26;76.18;100898.42;3456457;83;99322;-90
2021/05/24 06:01:03;;;;;;;8.33;3.73;;;;;;;17.01;75.60;100898.19;3473820;83;25773;-90
2021/05/24 06:06:02;;;;;;;6.80;3.40;;;;;;;17.73;73.23;100906.30;3453516;83;99380;-90
2021/05/24 06:11:03;;;;;;;8.45;3.17;;;;;;;18.28;70.27;100913.83;3420481;84;28842;-90
2021/05/24 06:16:04;;;;;;;6.25;2.90;;;;;;;18.87;68.25;100915.84;3420927;84;99029;-87
2021/05/24 06:21:05;;;;;;;8.08;3.17;;;;;;;19.32;66.07;100926.90;3434883;84;26003;-88
2021/05/24 06:26:06;;;;;;;6.15;2.70;;;;;;;19.65;63.52;100928.71;3428040;84;99200;-89
2021/05/24 06:31:06;;;;;;;9.10;2.60;;;;;;;20.02;62.54;100941.00;3434406;84;28330;-89
2021/05/24 06:36:07;;;;;;;6.70;2.75;;;;;;;20.28;57.49;100947.07;3430485;84;98866;-86
2021/05/24 06:41:08;;;;;;;5.58;2.40;;;;;;;20.44;59.40;100946.37;3433325;84;35403;-88
2021/05/24 06:46:09;;;;;;;6.12;2.70;;;;;;;20.84;57.41;100947.28;3430628;84;99024;-90
2021/05/24 06:51:10;;;;;;;5.62;1.75;;;;;;;21.15;56.98;100942.96;3422058;84;34884;-87
2021/05/24 06:56:11;;;;;;;4.00;1.62;;;;;;;21.50;55.51;100940.70;3429617;84;99164;-88
2021/05/24 07:01:11;;;;;;;5.75;1.60;;;;;;;21.59;53.41;100942.25;3430713;84;34805;-88
2021/05/24 07:06:12;;;;;;;5.70;1.70;;;;;;;21.80;51.99;100945.17;3431700;84;99087;-89
2021/05/24 07:11:13;;;;;;;7.00;1.77;;;;;;;22.02;52.11;100944.13;3438714;84;34914;-87
2021/05/24 07:16:14;;;;;;;3.17;1.25;;;;;;;22.19;49.98;100934.44;3424611;84;99084;-87
2021/05/24 07:21:14;;;;;;;3.85;1.20;;;;;;;21.98;48.94;100939.27;3429429;84;33001;-88
2021/05/24 07:26:15;;;;;;;3.62;1.17;;;;;;;22.07;47.14;100937.22;3427542;84;99190;-87
2021/05/24 07:31:17;;;;;;;5.03;1.30;;;;;;;22.02;47.28;100947.57;3435369;84;32504;-89
2021/05/24 07:36:18;;;;;;;5.47;1.37;;;;;;;22.08;47.22;100938.16;3405223;84;99077;-87
2021/05/24 07:41:19;;;;;;;4.55;1.10;;;;;;;21.92;44.47;100932.63;3432931;84;32564;-87
2021/05/24 07:46:20;;;;;;;6.12;1.35;;;;;;;21.52;45.86;100929.84;3414172;84;99349;-87
2021/05/24 07:51:21;;;;;;;4.72;1.12;;;;;;;21.18;47.28;100923.10;3425820;84;30774;-88
2021/05/24 07:56:21;;;;;;;9.65;2.10;;;;;;;21.31;47.60;100918.41;3425483;84;99052;-87
2021/05/24 08:01:22;;;;;;;4.42;1.50;;;;;;;21.34;47.62;100911.91;3427853;84;30536;-87
2021/05/24 08:06:23;;;;;;;6.50;1.82;;;;;;;21.43;47.48;100914.89;3418024;84;99112;-88
2021/05/24 08:11:24;;;;;;;4.00;1.40;;;;;;;21.72;47.66;100921.34;3430314;84;25753;-88
2021/05/24 08:16:25;;;;;;;8.47;1.57;;;;;;;21.94;46.99;100906.94;3412860;83;99122;-88
2021/05/24 08:21:26;;;;;;;2.70;1.43;;;;;;;22.51;46.70;100895.70;3432694;84;26143;-86
2021/05/24 08:26:27;;;;;;;6.87;1.53;;;;;;;22.89;46.27;100877.63;3426350;84;99213;-87
2021/05/24 08:31:27;;;;;;;4.08;1.35;;;;;;;23.11;45.24;100879.91;3421972;84;26175;-88
2021/05/24 08:36:28;;;;;;;7.10;1.60;;;;;;;23.08;42.33;100877.22;3427477;84;99285;-87
2021/05/24 08:41:32;;;;;;;6.12;1.55;;;;;;;23.44;44.28;100866.41;3427738;84;26420;-91
2021/05/24 08:46:34;;;;;;;4.47;2.12;;;;;;;23.69;43.31;100869.91;3424017;84;98885;-87
2021/05/24 08:51:35;;;;;;;3.60;1.45;;;;;;;23.77;42.72;100860.61;3444206;84;25838;-89
2021/05/24 08:56:37;;;;;;;2.98;1.00;;;;;;;23.61;41.67;100859.38;3429660;84;99068;-88
2021/05/24 09:01:38;;;;;;;4.00;1.00;;;;;;;23.35;42.32;100850.86;3431146;84;26264;-88
2021/05/24 09:06:42;;;;;;;5.55;1.12;;;;;;;23.24;40.96;100839.20;3419274;84;99426;-90
2021/05/24 09:11:46;;;;;;;5.42;1.10;;;;;;;23.21;41.54;100832.47;3436404;84;25910;-91
2021/05/24 09:16:59;;;;;;;3.52;1.30;;;;;;;22.80;40.64;100832.63;3425922;84;98758;-87
2021/05/24 09:22:05;;;;;;;4.70;1.57;;;;;;;22.93;41.56;100832.59;3432161;84;26298;-86
2021/05/24 09:27:23;;;;;;;5.47;1.82;;;;;;;22.75;40.90;100838.00;3418932;84;98729;-89
2021/05/24 09:32:26;;;;;;;6.45;1.55;;;;;;;22.89;41.90;100835.52;3433959;84;26105;-89
2021/05/24 09:37:36;;;;;;;4.97;1.35;;;;;;;22.88;41.04;100838.16;3427264;84;99213;-88
2021/05/24 09:42:43;;;;;;;5.05;1.50;;;;;;;22.64;41.94;100845.98;3432397;84;25787;-89
2021/05/24 09:47:45;;;;;;;9.98;2.98;;;;;;;22.65;41.90;100846.14;3425483;84;98994;-85
2021/05/24 09:52:47;;;;;;;4.30;1.75;;;;;;;22.59;42.80;100832.50;3430470;84;25874;-87
2021/05/24 09:58:05;;;;;;;3.05;1.55;;;;;;;22.46;42.14;100829.69;3423700;84;99282;-86
2021/05/24 10:03:07;;;;;;;4.67;1.62;;;;;;;22.34;42.53;100814.25;3408340;84;25806;-86
2021/05/24 10:08:10;;;;;;;3.83;1.40;;;;;;;22.25;42.43;100809.30;3381842;85;98931;-84
2021/05/24 10:13:11;;;;;;;3.22;1.20;;;;;;;22.18;41.94;100802.49;3390004;85;26347;-85
2021/05/24 10:18:12;;;;;;;5.10;1.17;;;;;;;22.17;41.58;100827.56;3387936;85;98951;-88
2021/05/24 10:23:13;;;;;;;4.83;1.27;;;;;;;21.95;42.12;100804.19;3393709;85;26372;-85
2021/05/24 10:28:14;;;;;;;3.47;1.10;;;;;;;22.19;41.96;100812.47;3390914;85;98928;-89
2021/05/24 10:33:15;;;;;;;6.00;1.70;;;;;;;22.32;41.64;100806.28;3400932;85;25758;-88
2021/05/24 10:38:33;;;;;;;3.35;1.35;;;;;;;22.53;41.51;100815.47;3390534;85;98807;-85
2021/05/24 10:43:46;;;;;;;3.60;1.37;;;;;;;22.71;41.59;100805.05;3397156;85;26303;-85
2021/05/24 10:48:55;;;;;;;6.60;1.72;;;;;;;22.49;40.33;100805.56;3390293;85;99298;-86
2021/05/24 10:54:02;;;;;;;4.15;1.07;;;;;;;22.12;40.56;100797.27;3398993;85;26434;-85
2021/05/24 10:59:02;;;;;;;5.33;1.22;;;;;;;22.07;40.50;100802.02;3393591;85;99048;-86
2021/05/24 11:04:11;;;;;;;4.80;1.30;;;;;;;22.04;40.08;100797.33;3417411;84;26150;-88
2021/05/24 11:09:12;;;;;;;2.90;1.20;;;;;;;22.14;40.80;100777.20;3423479;84;98659;-86
2021/05/24 11:14:12;;;;;;;3.47;1.15;;;;;;;22.33;40.23;100766.37;3431416;84;26417;-87
2021/05/24 11:19:16;;;;;;;3.43;1.20;;;;;;;22.48;39.35;100753.51;3422013;84;98566;-86
2021/05/24 11:24:36;;;;;;;4.95;1.27;;;;;;;22.58;40.07;100743.97;3419877;84;27058;-82
2021/05/24 11:29:35;;;;;;;7.45;1.62;;;;;;;22.77;39.65;100738.73;3422113;84;25974;-82
2021/05/24 11:34:39;;;;;;;3.03;1.00;;;;;;;22.80;38.09;100740.02;3419187;84;106512;-87
2021/05/24 11:39:49;;;;;;;2.92;1.00;;;;;;;22.82;38.67;100729.11;3432263;84;26276;-84
2021/05/24 11:44:51;;;;;;;3.85;0.90;;;;;;;22.72;38.56;100731.66;3423855;84;99175;-85
2021/05/24 11:49:56;;;;;;;4.12;1.10;;;;;;;22.60;37.21;100735.87;3412812;84;26270;-86
2021/05/24 11:54:57;;;;;;;4.95;1.00;;;;;;;22.51;37.79;100710.55;3424092;84;98769;-89
2021/05/24 11:59:58;;;;;;;4.47;1.33;;;;;;;22.38;37.76;100712.53;3428358;84;26827;-86
2021/05/24 12:04:59;;;;;;;2.42;0.90;;;;;;;22.67;39.43;100710.41;3411752;84;99525;-88
2021/05/24 12:10:00;;;;;;;4.20;1.00;;;;;;;22.89;38.88;100701.42;3430169;84;26565;-87
2021/05/24 12:15:06;;;;;;;2.57;1.00;;;;;;;23.16;39.22;100689.02;3414081;84;99118;-89
2021/05/24 12:20:11;;;;;;;6.37;1.02;;;;;;;23.46;37.33;100684.11;3418188;84;26887;-87
2021/05/24 12:25:16;;;;;;;3.37;0.80;;;;;;;23.78;36.37;100661.98;3422347;84;99073;-87
2021/05/24 12:30:31;;;;;;;2.43;0.67;;;;;;;24.08;36.34;100646.38;3427918;84;25862;-86
2021/05/24 12:35:36;;;;;;;4.73;0.90;;;;;;;23.96;34.95;100645.22;3418617;84;99440;-86
2021/05/24 12:40:37;;;;;;;3.30;0.75;;;;;;;23.83;35.43;100626.25;3434173;84;26306;-87
2021/05/24 12:45:37;;;;;;;2.10;0.80;;;;;;;23.94;34.70;100613.19;3426942;84;99425;-86
2021/05/24 12:50:41;;;;;;;4.78;1.12;;;;;;;24.10;34.60;100596.06;3419247;84;26563;-88
2021/05/24 12:55:42;;;;;;;3.60;0.93;;;;;;;24.35;34.74;100593.00;3413404;84;99515;-89
2021/05/24 13:00:47;;;;;;;6.33;1.05;;;;;;;24.57;34.00;100578.93;3433625;84;26010;-87
2021/05/24 13:06:08;;;;;;;4.83;0.73;;;;;;;24.57;31.66;100567.67;3420120;84;99397;-93
2021/05/24 13:11:09;;;;;;;3.17;1.00;;;;;;;24.58;33.14;100567.09;3423832;84;26298;-87
2021/05/24 13:16:28;;;;;;;2.08;0.70;;;;;;;24.59;33.61;100570.84;3418028;84;99140;-89
2021/05/24 13:26:56;;;;;;;3.87;1.25;;;;;;;24.59;34.15;100564.42;3417690;84;99330;-89
2021/05/24 13:31:42;;;;;;;2.33;0.90;;;;;;;24.30;34.12;100550.01;3430396;84;25909;-90
2021/05/24 13:36:46;;;;;;;2.47;0.90;;;;;;;24.07;34.55;100541.52;3428365;84;99118;-86
2021/05/24 13:41:51;;;;;;;2.35;0.80;;;;;;;23.99;34.61;100547.30;3429411;84;26304;-88
2021/05/24 13:46:54;;;;;;;2.77;0.90;;;;;;;23.87;34.94;100541.13;3425469;84;99354;-86
2021/05/24 13:51:56;;;;;;;3.50;1.17;;;;;;;23.79;34.71;100555.33;3436674;84;26393;-88
2021/05/24 13:56:56;;;;;;;5.53;1.02;;;;;;;23.66;34.41;100532.80;3414115;84;99659;-83
2021/05/24 14:01:57;;;;;;;2.37;0.90;;;;;;;23.31;34.44;100540.61;3432007;84;26024;-87
2021/05/24 14:07:00;;;;;;;5.97;1.23;;;;;;;23.31;34.73;100538.41;3390605;85;99427;-87
2021/05/24 14:12:01;;;;;;;3.37;1.20;;;;;;;23.21;34.66;100524.19;3383944;85;25870;-88
2021/05/24 14:17:02;;;;;;;4.22;0.90;;;;;;;23.08;35.13;100534.06;3385907;85;99156;-86
2021/05/24 14:22:03;;;;;;;5.22;1.05;;;;;;;23.02;35.74;100514.05;3390459;85;26499;-88
2021/05/24 14:27:05;;;;;;;4.87;1.20;;;;;;;23.01;35.82;100514.70;3380756;85;101185;-89
2021/05/24 14:32:06;;;;;;;3.98;1.27;;;;;;;22.91;35.74;100503.86;3402354;85;26087;-88
2021/05/24 14:37:09;;;;;;;3.03;1.00;;;;;;;22.80;36.08;100488.84;3389113;85;98988;-90
2021/05/24 14:42:10;;;;;;;5.47;1.12;;;;;;;22.79;36.21;100479.47;3397750;85;26303;-86
2021/05/24 14:47:12;;;;;;;3.85;1.05;;;;;;;22.80;36.36;100471.20;3389640;84;99037;-87
2021/05/24 14:52:13;;;;;;;7.05;1.37;;;;;;;22.50;36.34;100467.11;3397483;85;26116;-88
2021/05/24 14:57:15;;;;;;;3.62;1.20;;;;;;;22.31;36.33;100462.59;3387607;85;99123;-86
2021/05/24 15:02:16;;;;;;;6.47;1.30;;;;;;;22.30;37.25;100458.22;3394624;85;26336;-87
2021/05/24 15:07:16;;;;;;;4.30;1.30;;;;;;;22.30;37.58;100451.82;3416201;84;99053;-84
2021/05/24 15:12:17;;;;;;;4.13;0.90;;;;;;;22.29;37.11;100446.82;3430653;84;25795;-88
2021/05/24 15:17:18;;;;;;;3.00;1.23;;;;;;;22.12;36.88;100432.06;3421918;84;99079;-86
2021/05/24 15:22:20;;;;;;;4.47;1.07;;;;;;;21.99;37.13;100439.11;3430143;84;26278;-88
2021/05/24 15:27:21;;;;;;;5.60;1.17;;;;;;;21.87;37.39;100425.14;3423300;84;99003;-86
2021/05/24 15:32:22;;;;;;;5.97;1.30;;;;;;;21.73;37.78;100411.61;3420941;84;33309;-84
2021/05/24 15:37:23;;;;;;;8.67;1.80;;;;;;;21.64;38.24;100408.71;3429599;84;99137;-88
2021/05/24 15:42:24;;;;;;;4.07;1.37;;;;;;;21.44;38.25;100393.58;3427450;84;34034;-88
2021/05/24 15:47:24;;;;;;;7.60;1.80;;;;;;;21.28;38.52;100396.52;3421836;84;98989;-90
2021/05/24 15:52:25;;;;;;;3.05;1.25;;;;;;;21.22;38.86;100392.72;3425301;84;33742;-88
2021/05/24 15:57:27;;;;;;;4.83;1.10;;;;;;;21.08;38.99;100381.98;3421262;84;99331;-88
2021/05/24 16:02:28;;;;;;;6.15;1.10;;;;;;;20.89;39.27;100366.83;3434549;84;33222;-81
2021/05/24 16:07:28;;;;;;;5.15;1.57;;;;;;;20.80;39.52;100356.28;3422550;85;99416;-86
2021/05/24 16:12:29;;;;;;;3.00;1.20;;;;;;;20.67;39.88;100363.09;3428390;86;26056;-85
2021/05/24 16:17:30;;;;;;;3.52;1.60;;;;;;;20.51;40.53;100354.20;3414478;85;99241;-85
2021/05/24 16:22:31;;;;;;;3.63;1.30;;;;;;;20.51;40.63;100359.00;3423794;86;32332;-86
2021/05/24 16:27:32;;;;;;;6.83;1.90;;;;;;;20.43;41.26;100345.84;3414321;85;98835;-87
2021/05/24 16:32:34;;;;;;;3.27;1.33;;;;;;;20.25;41.50;100340.61;3417790;86;32604;-88
2021/05/24 16:37:37;;;;;;;9.30;1.80;;;;;;;20.15;42.10;100335.52;3419377;85;99133;-87
2021/05/24 16:42:37;;;;;;;5.83;1.60;;;;;;;20.19;42.38;100331.21;3427467;86;27465;-88
2021/05/24 16:47:38;;;;;;;5.17;1.60;;;;;;;20.07;42.51;100331.38;3417118;85;98975;-86
2021/05/24 16:52:39;;;;;;;5.70;1.83;;;;;;;19.97;42.88;100326.84;3425077;86;32741;-87
2021/05/24 16:57:40;;;;;;;6.93;1.70;;;;;;;19.81;43.19;100311.54;3418055;86;99094;-88
2021/05/24 17:02:41;;;;;;;3.83;1.40;;;;;;;19.80;43.52;100296.61;3420445;85;33518;-87
2021/05/24 17:07:44;;;;;;;3.93;1.63;;;;;;;19.73;43.93;100305.20;3409934;84;99144;-86
2021/05/24 17:12:45;;;;;;;4.80;1.50;;;;;;;19.64;44.49;100303.05;3424184;86;32969;-86
2021/05/24 17:17:46;;;;;;;5.25;2.02;;;;;;;19.51;44.28;100304.98;3414398;85;99149;-87
2021/05/24 17:22:47;;;;;;;7.33;2.10;;;;;;;19.47;44.85;100318.87;3425770;86;32197;-88
2021/05/24 17:27:49;;;;;;;4.80;1.80;;;;;;;19.45;45.13;100305.98;3411570;85;99034;-89
2021/05/24 17:32:51;;;;;;;5.20;1.80;;;;;;;19.42;45.28;100302.66;3420101;85;31708;-88
2021/05/24 17:37:53;;;;;;;4.95;1.98;;;;;;;19.40;45.76;100296.74;3415934;86;98952;-87
2021/05/24 17:42:54;;;;;;;4.03;1.90;;;;;;;19.34;45.76;100290.13;3424359;86;25926;-87
2021/05/24 17:47:58;;;;;;;5.33;1.50;;;;;;;19.30;46.29;100273.45;3413128;84;100579;-87
2021/05/24 17:53:00;;;;;;;6.97;2.10;;;;;;;19.26;47.05;100261.63;3423303;86;33276;-87
2021/05/24 17:58:03;;;;;;;4.45;1.65;;;;;;;19.19;47.40;100262.39;3415158;86;98727;-86
2021/05/24 18:03:05;;;;;;;6.05;2.67;;;;;;;18.97;47.45;100257.20;3423996;86;33203;-87
2021/05/24 18:08:08;;;;;;;4.47;1.90;;;;;;;18.90;47.76;100262.34;3431379;85;99740;-86
2021/05/24 18:13:10;;;;;;;6.83;2.47;;;;;;;18.84;47.96;100256.32;3435152;84;33258;-87
2021/05/24 18:18:30;;;;;;;6.05;2.50;;;;;;;18.78;48.03;100260.86;3421391;85;99043;-86
2021/05/24 18:23:29;;;;;;;10.50;4.67;;;;;;;18.66;48.50;100273.51;3438261;84;33240;-87
2021/05/24 18:28:29;;;;;;;8.87;4.20;;;;;;;18.63;48.57;100279.17;3425495;85;99269;-87
2021/05/24 18:33:33;;;;;;;6.30;3.40;;;;;;;18.47;48.73;100286.12;3434683;85;31687;-86
2021/05/24 18:38:33;;;;;;;6.00;2.80;;;;;;;18.33;49.03;100302.55;3427426;85;99084;-88
2021/05/24 18:43:39;;;;;;;9.60;3.70;;;;;;;18.23;49.56;100297.17;3424993;85;33247;-87
2021/05/24 18:48:39;;;;;;;11.15;5.65;;;;;;;18.15;49.64;100299.32;3422111;85;98971;-85
2021/05/24 18:53:42;;;;;;;8.93;3.57;;;;;;;18.03;50.08;100292.26;3431666;85;26542;-85
2021/05/24 18:58:46;;;;;;;8.43;3.00;;;;;;;17.92;50.31;100284.73;3428869;85;99002;-86
2021/05/24 19:03:55;;;;;;;6.00;2.70;;;;;;;17.82;50.67;100292.07;3418258;85;33282;-86
2021/05/24 19:08:56;;;;;;;8.05;2.80;;;;;;;17.74;50.75;100301.00;3430198;84;98677;-85
2021/05/24 19:13:57;;;;;;;6.37;2.15;;;;;;;17.69;50.97;100294.53;3436137;84;34715;-86
2021/05/24 19:18:58;;;;;;;6.70;2.73;;;;;;;17.65;51.15;100298.78;3417726;84;98959;-85
2021/05/24 19:23:59;;;;;;;5.97;2.60;;;;;;;17.58;51.21;100291.97;3430261;84;31678;-83
2021/05/24 19:29:05;;;;;;;7.22;3.10;;;;;;;17.53;51.53;100291.07;3424790;84;98978;-86
2021/05/24 19:34:05;;;;;;;4.72;2.40;;;;;;;17.48;51.63;100279.64;3432899;84;33905;-86
2021/05/24 19:39:07;;;;;;;7.97;3.47;;;;;;;17.42;51.81;100273.00;3430514;84;98977;-87
2021/05/24 19:44:07;;;;;;;8.88;3.15;;;;;;;17.37;51.92;100264.52;3426674;84;33740;-85
2021/05/24 19:50:36;;;;;;;9.83;3.53;;;;;;;17.30;52.13;100261.88;3429319;84;98715;-87
2021/05/24 20:26:10;;;;;;;9.80;3.37;;;;;;;16.88;52.84;100223.72;3434650;84;99056;-88
2021/05/24 20:31:10;;;;;;;8.20;2.97;;;;;;;16.80;52.96;100223.68;3435573;84;25834;-90
2021/05/24 20:36:12;;;;;;;6.77;2.33;;;;;;;16.74;53.14;100222.56;3428200;84;99105;-85
2021/05/24 20:41:13;;;;;;;8.77;2.47;;;;;;;16.72;53.13;100219.44;3441917;84;31718;-87
2021/05/24 20:46:17;;;;;;;10.27;2.97;;;;;;;16.70;52.86;100210.75;3426690;84;99103;-84
2021/05/24 20:51:21;;;;;;;6.78;1.98;;;;;;;16.68;53.04;100190.14;3437877;84;33315;-86
2021/05/24 20:56:22;;;;;;;6.10;1.98;;;;;;;16.62;53.09;100173.16;3424902;83;99163;-86
2021/05/24 21:01:23;;;;;;;5.17;2.20;;;;;;;16.59;53.15;100168.47;3431779;84;33225;-87
2021/05/24 21:06:25;;;;;;;7.60;1.90;;;;;;;16.55;53.41;100160.79;3424837;84;99327;-86
2021/05/24 21:11:25;;;;;;;7.40;1.87;;;;;;;16.51;53.44;100154.50;3426195;84;25790;-86
2021/05/24 21:16:26;;;;;;;5.55;1.67;;;;;;;16.49;53.64;100153.35;3427091;84;99511;-88
2021/05/24 21:21:27;;;;;;;5.60;2.07;;;;;;;16.45;53.84;100141.54;3435333;84;31773;-89
2021/05/24 21:26:28;;;;;;;3.90;1.43;;;;;;;16.42;53.80;100143.17;3420456;83;99300;-86
2021/05/24 21:31:32;;;;;;;7.67;2.10;;;;;;;16.40;54.04;100155.91;3431842;84;31689;-88
2021/05/24 21:36:32;;;;;;;4.97;1.80;;;;;;;16.37;54.13;100149.77;3425753;83;99141;-88
2021/05/24 21:41:33;;;;;;;6.80;1.72;;;;;;;16.33;54.29;100148.44;3427737;84;25977;-87
2021/05/24 21:46:34;;;;;;;5.07;1.40;;;;;;;16.29;54.49;100139.38;3428182;84;99226;-87
2021/05/24 21:51:35;;;;;;;8.87;1.87;;;;;;;16.26;54.66;100133.88;3425901;84;31536;-86
2021/05/24 21:56:37;;;;;;;7.30;2.00;;;;;;;16.22;54.83;100129.78;3419697;84;98684;-87
2021/05/24 22:01:37;;;;;;;7.27;1.70;;;;;;;16.18;55.00;100125.50;3427331;84;32539;-88
2021/05/24 22:06:38;;;;;;;7.60;2.13;;;;;;;16.15;55.14;100119.39;3425406;84;99289;-85
2021/05/24 22:11:39;;;;;;;7.70;2.33;;;;;;;16.12;55.35;100123.80;3413634;86;31676;-88
2021/05/24 22:16:39;;;;;;;4.78;1.70;;;;;;;16.09;55.48;100126.01;3408835;84;99159;-86
2021/05/24 22:21:42;;;;;;;6.67;1.97;;;;;;;16.06;55.89;100128.84;3416424;86;27491;-85
2021/05/24 22:26:43;;;;;;;6.37;2.00;;;;;;;16.02;56.26;100121.20;3411429;85;99337;-88
2021/05/24 22:31:43;;;;;;;7.20;2.03;;;;;;;15.99;56.27;100120.64;3425587;86;26359;-90
2021/05/24 22:36:44;;;;;;;6.13;2.07;;;;;;;15.95;56.54;100114.34;3409393;85;98853;-91
2021/05/24 22:41:45;;;;;;;6.57;2.10;;;;;;;15.92;56.69;100104.11;3421099;86;25811;-92
2021/05/24 22:46:46;;;;;;;4.90;1.93;;;;;;;15.89;56.96;100102.95;3412614;85;99333;-93
2021/05/24 22:51:48;;;;;;;4.53;1.63;;;;;;;15.88;57.13;100095.04;3415324;86;34880;-91
2021/05/24 22:56:49;;;;;;;4.63;1.87;;;;;;;15.89;57.28;100099.38;3408796;86;99128;-91
2021/05/24 23:01:50;;;;;;;5.30;2.20;;;;;;;15.87;57.49;100097.02;3412465;86;35333;-92
2021/05/24 23:06:50;;;;;;;4.97;1.97;;;;;;;15.88;57.64;100108.91;3412140;85;99138;-90
2021/05/24 23:11:51;;;;;;;5.60;1.87;;;;;;;15.87;57.82;100096.25;3427494;84;35287;-91
2021/05/24 23:16:52;;;;;;;5.30;2.30;;;;;;;15.76;57.95;100086.69;3432528;84;99122;-92
2021/05/24 23:21:53;;;;;;;7.67;2.30;;;;;;;15.84;58.14;100096.48;3435131;84;33636;-91
2021/05/24 23:26:53;;;;;;;5.57;1.80;;;;;;;15.84;58.21;100092.33;3421892;84;99081;-91
2021/05/24 23:31:54;;;;;;;6.53;2.10;;;;;;;15.82;58.37;100073.94;3426117;84;26234;-91
2021/05/24 23:36:55;;;;;;;5.80;2.43;;;;;;;15.80;58.63;100063.84;3428681;84;99206;-92
2021/05/24 23:41:56;;;;;;;6.53;1.97;;;;;;;15.75;58.94;100047.66;3428557;84;25814;-92
2021/05/24 23:46:56;;;;;;;5.03;2.05;;;;;;;15.73;59.01;100050.67;3424970;84;99064;-89
2021/05/24 23:51:57;;;;;;;4.37;1.87;;;;;;;15.68;59.49;100050.56;3429891;84;29624;-91
2021/05/24 23:56:58;;;;;;;4.00;1.90;;;;;;;15.63;59.90;100048.84;3418662;84;98749;-91
